createdAt,value
2022-12-25T00:02:05.643Z,2.89
2022-12-25T00:05:08.853Z,3.11
2022-12-25T00:08:11.641Z,3.17
2022-12-25T00:11:17.096Z,3.16
2022-12-25T00:14:19.919Z,3.13
2022-12-25T00:17:22.694Z,3.19
2022-12-25T00:20:25.535Z,3.26
2022-12-25T00:23:29.227Z,3.43
2022-12-25T00:26:32.022Z,3.44
2022-12-25T00:29:35.265Z,3.39
2022-12-25T00:32:38.125Z,3.39
2022-12-25T00:35:41.179Z,3.36
2022-12-25T00:38:44.851Z,3.36
2022-12-25T00:42:06.150Z,3.40
2022-12-25T00:45:09.462Z,3.50
2022-12-25T00:48:12.257Z,3.47
2022-12-25T00:51:15.154Z,3.51
2022-12-25T00:54:18.500Z,3.59
2022-12-25T00:57:21.368Z,3.60
2022-12-25T01:00:24.228Z,3.61
2022-12-25T01:03:27.571Z,3.71
2022-12-25T01:06:30.988Z,3.70
2022-12-25T01:10:00.209Z,3.67
2022-12-25T01:13:03.093Z,3.69
2022-12-25T01:16:16.418Z,3.60
2022-12-25T01:19:19.306Z,3.69
2022-12-25T01:22:22.162Z,3.70
2022-12-25T01:25:25.071Z,3.77
2022-12-25T01:28:27.800Z,3.81
2022-12-25T01:31:30.562Z,3.86
2022-12-25T01:34:33.464Z,3.90
2022-12-25T01:37:36.223Z,3.87
2022-12-25T01:40:39.446Z,3.88
2022-12-25T01:44:01.108Z,3.95
2022-12-25T01:47:05.719Z,3.92
2022-12-25T01:50:09.155Z,3.86
2022-12-25T01:53:12.500Z,3.90
2022-12-25T01:56:15.304Z,3.92
2022-12-25T01:59:21.863Z,3.93
2022-12-25T02:02:25.283Z,3.93
2022-12-25T02:05:32.443Z,3.94
2022-12-25T02:08:35.228Z,3.94
2022-12-25T02:11:56.743Z,3.93
2022-12-25T02:15:05.825Z,3.95
2022-12-25T02:18:47.299Z,4.01
2022-12-25T02:22:13.019Z,3.94
2022-12-25T02:25:34.363Z,4.00
2022-12-25T02:28:52.464Z,4.02
2022-12-25T02:32:04.796Z,3.86
2022-12-25T02:35:18.336Z,3.86
2022-12-25T02:38:30.107Z,3.91
2022-12-25T02:41:37.480Z,3.70
2022-12-25T02:45:02.246Z,3.64
2022-12-25T02:48:25.569Z,3.57
2022-12-25T02:51:51.948Z,3.71
2022-12-25T02:55:21.729Z,3.65
2022-12-25T02:58:45.004Z,3.52
2022-12-25T03:02:06.337Z,3.44
2022-12-25T03:05:31.959Z,3.36
2022-12-25T03:08:39.848Z,3.40
2022-12-25T03:11:45.831Z,3.37
2022-12-25T03:15:07.208Z,3.44
2022-12-25T03:18:14.621Z,3.53
2022-12-25T03:21:36.330Z,3.62
2022-12-25T03:24:58.441Z,3.63
2022-12-25T03:28:03.916Z,3.67
2022-12-25T03:31:38.737Z,3.70
2022-12-25T03:35:23.373Z,3.65
2022-12-25T03:39:02.808Z,3.59
2022-12-25T03:42:26.003Z,3.60
2022-12-25T03:46:12.566Z,3.53
2022-12-25T03:49:48.845Z,3.49
2022-12-25T03:53:13.163Z,3.45
2022-12-25T03:56:37.576Z,3.40
2022-12-25T03:59:59.196Z,3.55
2022-12-25T04:03:20.667Z,3.62
2022-12-25T04:06:59.114Z,3.71
2022-12-25T04:10:20.612Z,3.69
2022-12-25T04:13:52.634Z,3.79
2022-12-25T04:17:27.648Z,3.70
2022-12-25T04:20:49.293Z,3.70
2022-12-25T04:24:10.736Z,3.67
2022-12-25T04:27:32.164Z,3.60
2022-12-25T04:30:53.531Z,3.57
2022-12-25T04:34:14.690Z,3.47
2022-12-25T04:37:17.503Z,3.43
2022-12-25T04:40:20.425Z,3.43
2022-12-25T04:43:25.311Z,3.42
2022-12-25T04:46:28.093Z,3.40
2022-12-25T04:49:31.096Z,3.35
2022-12-25T04:52:39.543Z,3.45
2022-12-25T04:55:42.337Z,3.42
2022-12-25T04:58:45.579Z,3.35
2022-12-25T05:01:48.556Z,3.33
2022-12-25T05:04:51.509Z,3.30
2022-12-25T05:07:54.374Z,3.32
2022-12-25T05:10:57.414Z,3.36
2022-12-25T05:14:00.196Z,3.43
2022-12-25T05:17:03.582Z,3.46
2022-12-25T05:20:08.578Z,3.51
2022-12-25T05:23:12.494Z,3.60
2022-12-25T05:26:17.119Z,3.65
2022-12-25T05:29:19.866Z,3.72
2022-12-25T05:32:22.608Z,3.75
2022-12-25T05:35:25.399Z,3.80
2022-12-25T05:38:28.202Z,3.82
2022-12-25T05:41:34.447Z,3.83
2022-12-25T05:44:37.857Z,3.95
2022-12-25T05:47:40.615Z,4.06
2022-12-25T05:50:43.929Z,4.14
2022-12-25T05:53:46.738Z,4.09
2022-12-25T05:56:49.507Z,4.11
2022-12-25T05:59:52.445Z,4.08
2022-12-25T06:02:55.651Z,4.07
2022-12-25T06:05:58.487Z,4.04
2022-12-25T06:09:01.266Z,4.07
2022-12-25T06:12:04.205Z,4.03
2022-12-25T06:15:08.099Z,3.96
2022-12-25T06:18:11.000Z,4.04
2022-12-25T06:21:15.559Z,4.05
2022-12-25T06:24:21.435Z,4.13
2022-12-25T06:27:25.369Z,4.15
2022-12-25T06:30:28.545Z,4.18
2022-12-25T06:33:31.360Z,4.22
2022-12-25T06:36:34.467Z,4.43
2022-12-25T06:39:37.506Z,4.41
2022-12-25T06:42:40.341Z,4.40
2022-12-25T06:45:43.267Z,4.32
2022-12-25T06:48:49.921Z,4.43
2022-12-25T06:51:53.000Z,4.47
2022-12-25T06:54:55.757Z,4.48
2022-12-25T06:57:58.556Z,4.53
2022-12-25T07:01:07.131Z,4.60
2022-12-25T07:04:18.085Z,4.66
2022-12-25T07:07:22.352Z,4.79
2022-12-25T07:10:26.695Z,4.79
2022-12-25T07:13:29.593Z,4.88
2022-12-25T07:16:32.596Z,4.67
2022-12-25T07:19:41.077Z,4.70
2022-12-25T07:22:47.412Z,4.53
2022-12-25T07:25:57.315Z,4.47
2022-12-25T07:29:00.157Z,4.35
2022-12-25T07:32:02.881Z,4.30
2022-12-25T07:35:06.079Z,4.33
2022-12-25T07:38:09.101Z,4.38
2022-12-25T07:41:13.299Z,4.52
2022-12-25T07:44:16.599Z,4.72
2022-12-25T07:47:19.333Z,5.21
2022-12-25T07:50:22.194Z,8.27
2022-12-25T07:53:25.104Z,10.41
2022-12-25T07:56:28.594Z,11.98
2022-12-25T07:59:31.431Z,11.22
2022-12-25T08:02:34.546Z,12.41
2022-12-25T08:05:37.530Z,13.60
2022-12-25T08:08:41.803Z,14.79
2022-12-25T08:11:49.579Z,15.07
2022-12-25T08:14:52.397Z,16.14
2022-12-25T08:17:55.268Z,16.38
2022-12-25T08:21:07.003Z,18.09
2022-12-25T08:24:10.911Z,19.91
2022-12-25T08:27:13.670Z,19.82
2022-12-25T08:30:16.640Z,21.55
2022-12-25T08:33:19.512Z,21.83
2022-12-25T08:36:23.627Z,23.01
2022-12-25T08:39:26.587Z,22.61
2022-12-25T08:42:29.419Z,20.95
2022-12-25T08:45:35.263Z,21.91
2022-12-25T08:48:39.012Z,21.16
2022-12-25T08:51:44.069Z,22.92
2022-12-25T08:54:47.331Z,23.39
2022-12-25T08:57:53.430Z,21.58
2022-12-25T09:00:56.755Z,21.83
2022-12-25T09:03:59.776Z,22.20
2022-12-25T09:07:02.850Z,23.55
2022-12-25T09:10:06.324Z,21.48
2022-12-25T09:13:10.086Z,20.08
2022-12-25T09:16:16.960Z,19.00
2022-12-25T09:19:19.931Z,18.48
2022-12-25T09:22:22.990Z,17.71
2022-12-25T09:25:25.822Z,17.67
2022-12-25T09:28:28.824Z,17.81
2022-12-25T09:31:32.076Z,18.08
2022-12-25T09:34:35.489Z,19.17
2022-12-25T09:37:38.308Z,18.57
2022-12-25T09:40:41.458Z,18.63
2022-12-25T09:43:51.547Z,18.64
2022-12-25T09:46:59.599Z,18.79
2022-12-25T09:50:21.301Z,18.77
2022-12-25T09:53:28.256Z,19.76
2022-12-25T09:56:32.821Z,19.15
2022-12-25T09:59:36.117Z,20.93
2022-12-25T10:02:58.062Z,24.33
2022-12-25T10:06:07.150Z,24.92
2022-12-25T10:09:41.019Z,25.65
2022-12-25T10:13:23.084Z,24.72
2022-12-25T10:16:47.297Z,25.49
2022-12-25T10:20:12.150Z,26.18
2022-12-25T10:23:19.882Z,26.96
2022-12-25T10:26:25.445Z,25.14
2022-12-25T10:29:33.011Z,26.66
2022-12-25T10:32:35.817Z,27.04
2022-12-25T10:35:39.701Z,27.26
2022-12-25T10:38:42.654Z,28.31
2022-12-25T10:42:09.850Z,27.60
2022-12-25T10:45:12.689Z,27.89
2022-12-25T10:48:24.035Z,28.01
2022-12-25T10:51:35.207Z,28.63
2022-12-25T10:54:38.092Z,26.67
2022-12-25T10:57:47.560Z,24.80
2022-12-25T11:00:57.059Z,25.50
2022-12-25T11:04:00.009Z,23.91
2022-12-25T11:07:19.178Z,22.61
2022-12-25T11:10:33.184Z,20.99
2022-12-25T11:13:40.534Z,19.98
2022-12-25T11:16:43.428Z,18.97
2022-12-25T11:19:53.813Z,19.16
2022-12-25T11:22:56.555Z,19.21
2022-12-25T11:26:06.446Z,18.06
2022-12-25T11:29:25.201Z,17.89
2022-12-25T11:32:34.065Z,17.32
2022-12-25T11:35:50.563Z,16.80
2022-12-25T11:38:53.508Z,16.58
2022-12-25T11:42:14.506Z,16.64
2022-12-25T11:45:21.378Z,16.74
2022-12-25T11:48:44.674Z,16.74
2022-12-25T11:51:55.618Z,16.59
2022-12-25T11:55:16.263Z,16.25
2022-12-25T11:58:32.255Z,15.87
2022-12-25T12:01:38.091Z,15.43
2022-12-25T12:04:44.337Z,15.06
2022-12-25T12:08:00.485Z,14.87
2022-12-25T12:11:18.548Z,14.85
2022-12-25T12:14:56.004Z,15.00
2022-12-25T12:18:28.319Z,15.22
2022-12-25T12:21:31.340Z,15.14
2022-12-25T12:24:43.163Z,15.43
2022-12-25T12:27:45.979Z,15.47
2022-12-25T12:31:04.255Z,15.44
2022-12-25T12:34:16.287Z,15.67
2022-12-25T12:37:32.656Z,15.52
2022-12-25T12:40:52.344Z,15.47
2022-12-25T12:43:59.945Z,15.31
2022-12-25T12:47:03.028Z,15.31
2022-12-25T12:50:07.223Z,15.33
2022-12-25T12:53:22.040Z,14.99
2022-12-25T12:56:25.591Z,15.12
2022-12-25T12:59:39.096Z,14.73
2022-12-25T13:03:11.335Z,14.72
2022-12-25T13:06:44.604Z,14.58
2022-12-25T13:10:08.883Z,14.39
2022-12-25T13:13:28.169Z,14.39
2022-12-25T13:16:39.052Z,14.42
2022-12-25T13:19:43.640Z,14.37
2022-12-25T13:22:52.370Z,14.17
2022-12-25T13:25:57.528Z,14.23
2022-12-25T13:29:00.963Z,13.84
2022-12-25T13:32:14.426Z,13.93
2022-12-25T13:35:18.401Z,13.78
2022-12-25T13:38:23.685Z,13.77
2022-12-25T13:41:52.236Z,13.89
2022-12-25T13:45:00.777Z,13.84
2022-12-25T13:48:16.202Z,13.74
2022-12-25T13:51:20.740Z,13.53
2022-12-25T13:54:23.870Z,13.38
2022-12-25T13:57:30.815Z,13.21
2022-12-25T14:00:39.741Z,13.46
2022-12-25T14:03:46.220Z,13.49
2022-12-25T14:06:50.327Z,13.37
2022-12-25T14:10:01.987Z,13.04
2022-12-25T14:13:08.146Z,12.89
2022-12-25T14:16:11.595Z,12.86
2022-12-25T14:19:29.434Z,12.78
2022-12-25T14:22:33.085Z,12.70
2022-12-25T14:25:43.131Z,12.73
2022-12-25T14:29:06.134Z,12.76
2022-12-25T14:32:16.892Z,12.77
2022-12-25T14:35:23.581Z,12.72
2022-12-25T14:38:29.340Z,12.77
2022-12-25T14:41:38.302Z,12.69
2022-12-25T14:44:41.953Z,12.74
2022-12-25T14:47:55.021Z,12.56
2022-12-25T14:51:06.340Z,12.37
2022-12-25T14:54:18.985Z,12.24
2022-12-25T14:57:29.533Z,12.14
2022-12-25T15:00:38.028Z,12.09
2022-12-25T15:03:41.006Z,11.99
2022-12-25T15:06:59.699Z,11.94
2022-12-25T15:13:31.528Z,11.79
2022-12-25T15:16:42.725Z,11.69
2022-12-25T15:19:45.463Z,11.63
2022-12-25T15:23:17.991Z,11.54
2022-12-25T15:26:14.518Z,11.45
2022-12-25T15:29:27.593Z,11.39
2022-12-25T15:32:40.184Z,11.39
2022-12-25T15:35:44.632Z,11.34
2022-12-25T15:38:47.543Z,11.28
2022-12-25T15:42:08.839Z,11.20
2022-12-25T15:45:30.886Z,11.17
2022-12-25T15:48:33.740Z,11.20
2022-12-25T15:51:36.741Z,11.12
2022-12-25T15:54:39.615Z,11.09
2022-12-25T15:57:44.520Z,11.17
2022-12-25T16:00:47.341Z,11.21
2022-12-25T16:03:50.383Z,11.12
2022-12-25T16:06:53.532Z,11.12
2022-12-25T16:09:56.324Z,10.97
2022-12-25T16:12:59.083Z,10.91
2022-12-25T16:16:03.660Z,10.83
2022-12-25T16:19:06.896Z,10.78
2022-12-25T16:22:21.819Z,10.73
2022-12-25T16:25:25.284Z,10.55
2022-12-25T16:28:28.084Z,10.35
2022-12-25T16:31:30.944Z,10.18
2022-12-25T16:34:33.813Z,10.12
2022-12-25T16:37:36.985Z,9.98
2022-12-25T16:40:40.028Z,9.74
2022-12-25T16:43:43.434Z,9.59
2022-12-25T16:46:46.237Z,9.41
2022-12-25T16:49:49.327Z,9.32
2022-12-25T16:52:52.072Z,9.19
2022-12-25T16:56:05.661Z,8.99
2022-12-25T16:59:09.070Z,8.83
2022-12-25T17:02:18.023Z,8.65
2022-12-25T17:05:20.878Z,8.52
2022-12-25T17:08:23.732Z,8.29
2022-12-25T17:11:30.317Z,8.15
2022-12-25T17:14:34.097Z,7.94
2022-12-25T17:17:36.860Z,7.83
2022-12-25T17:20:39.665Z,7.69
2022-12-25T17:23:43.215Z,7.55
2022-12-25T17:26:46.126Z,7.43
2022-12-25T17:29:49.090Z,7.29
2022-12-25T17:32:52.018Z,7.27
2022-12-25T17:36:00.013Z,7.26
2022-12-25T17:39:06.761Z,7.40
2022-12-25T17:42:09.588Z,7.42
2022-12-25T17:45:12.514Z,7.53
2022-12-25T17:48:15.539Z,7.64
2022-12-25T17:51:21.671Z,7.71
2022-12-25T17:54:24.467Z,7.82
2022-12-25T17:57:27.328Z,7.95
2022-12-25T18:00:30.228Z,8.03
2022-12-25T18:03:33.456Z,8.17
2022-12-25T18:06:36.929Z,8.31
2022-12-25T18:09:39.821Z,8.41
2022-12-25T18:12:44.286Z,8.46
2022-12-25T18:15:47.229Z,8.44
2022-12-25T18:18:52.693Z,8.48
2022-12-25T18:21:55.836Z,8.58
2022-12-25T18:24:58.704Z,8.60
2022-12-25T18:28:02.844Z,8.68
2022-12-25T18:31:10.809Z,8.68
2022-12-25T18:34:13.641Z,8.76
2022-12-25T18:37:16.329Z,8.72
2022-12-25T18:40:19.087Z,8.83
2022-12-25T18:43:22.109Z,8.82
2022-12-25T18:46:44.753Z,8.85
2022-12-25T18:49:48.658Z,8.85
2022-12-25T18:52:52.069Z,8.78
2022-12-25T18:55:56.843Z,8.85
2022-12-25T18:59:00.962Z,8.94
2022-12-25T19:02:03.957Z,9.16
2022-12-25T19:05:07.101Z,9.33
2022-12-25T19:08:10.204Z,9.37
2022-12-25T19:11:13.149Z,9.35
2022-12-25T19:14:15.993Z,9.28
2022-12-25T19:17:19.124Z,9.29
2022-12-25T19:20:22.024Z,9.29
2022-12-25T19:23:24.849Z,9.28
2022-12-25T19:26:27.775Z,9.30
2022-12-25T19:29:31.953Z,9.31
2022-12-25T19:32:34.696Z,9.19
2022-12-25T19:35:41.648Z,9.19
2022-12-25T19:38:44.715Z,9.18
2022-12-25T19:41:48.063Z,9.26
2022-12-25T19:44:50.808Z,9.44
2022-12-25T19:47:53.713Z,9.30
2022-12-25T19:50:56.740Z,9.23
2022-12-25T19:54:00.130Z,9.25
2022-12-25T19:57:03.015Z,9.27
2022-12-25T20:00:06.742Z,9.24
2022-12-25T20:03:16.313Z,9.29
2022-12-25T20:06:26.282Z,9.28
2022-12-25T20:09:30.778Z,9.30
2022-12-25T20:12:33.591Z,9.42
2022-12-25T20:15:36.480Z,9.39
2022-12-25T20:18:40.306Z,9.37
2022-12-25T20:21:43.245Z,9.37
2022-12-25T20:24:48.004Z,9.40
2022-12-25T20:27:50.903Z,9.24
2022-12-25T20:30:54.639Z,9.28
2022-12-25T20:34:00.626Z,9.30
2022-12-25T20:37:03.814Z,9.20
2022-12-25T20:40:07.499Z,9.08
2022-12-25T20:43:10.515Z,9.00
2022-12-25T20:46:14.869Z,9.04
2022-12-25T20:49:18.784Z,8.99
2022-12-25T20:52:21.690Z,8.80
2022-12-25T20:55:24.539Z,8.90
2022-12-25T20:58:27.750Z,8.96
2022-12-25T21:01:31.906Z,8.99
2022-12-25T21:04:34.908Z,8.99
2022-12-25T21:07:37.741Z,8.96
2022-12-25T21:10:40.575Z,8.99
2022-12-25T21:13:45.411Z,8.96
2022-12-25T21:16:48.302Z,8.97
2022-12-25T21:19:51.211Z,9.04
2022-12-25T21:22:53.920Z,8.88
2022-12-25T21:25:56.677Z,8.77
2022-12-25T21:29:02.298Z,8.73
2022-12-25T21:32:23.765Z,8.81
2022-12-25T21:35:26.663Z,8.76
2022-12-25T21:38:29.711Z,8.77
2022-12-25T21:41:34.595Z,8.77
2022-12-25T21:44:37.336Z,8.77
2022-12-25T21:48:00.367Z,8.75
2022-12-25T21:51:31.094Z,8.81
2022-12-25T21:54:34.450Z,8.83
2022-12-25T21:57:37.347Z,8.90
2022-12-25T22:00:40.277Z,8.98
2022-12-25T22:03:44.275Z,9.07
2022-12-25T22:07:06.019Z,9.04
2022-12-25T22:10:08.952Z,9.07
2022-12-25T22:13:30.372Z,9.01
2022-12-25T22:16:51.860Z,8.90
2022-12-25T22:19:55.002Z,8.76
2022-12-25T22:22:58.586Z,8.82
2022-12-25T22:26:04.538Z,8.99
2022-12-25T22:29:07.335Z,8.93
2022-12-25T22:32:11.645Z,8.95
2022-12-25T22:35:15.418Z,9.00
2022-12-25T22:38:18.277Z,9.03
2022-12-25T22:41:21.078Z,9.03
2022-12-25T22:44:25.874Z,9.07
2022-12-25T22:47:28.671Z,9.12
2022-12-25T22:50:31.507Z,9.30
2022-12-25T22:53:34.291Z,9.04
2022-12-25T22:56:37.214Z,8.88
2022-12-25T22:59:40.117Z,8.93
2022-12-25T23:02:43.137Z,9.03
2022-12-25T23:05:54.170Z,9.12
2022-12-25T23:08:57.115Z,9.07
2022-12-25T23:12:00.189Z,9.09
2022-12-25T23:15:03.039Z,9.05
2022-12-25T23:18:24.982Z,9.05
2022-12-25T23:21:47.072Z,9.07
2022-12-25T23:25:08.284Z,9.09
2022-12-25T23:28:11.133Z,9.13
2022-12-25T23:31:15.213Z,9.15
2022-12-25T23:34:18.193Z,9.12
2022-12-25T23:37:21.655Z,9.07
2022-12-25T23:40:24.403Z,9.00
2022-12-25T23:43:27.201Z,8.94
2022-12-25T23:46:30.242Z,9.01
2022-12-25T23:49:33.314Z,8.93
2022-12-25T23:52:36.075Z,8.98
2022-12-25T23:55:39.034Z,8.95
2022-12-25T23:58:41.999Z,8.95
